Terminal Aerodrome Forecast
Issued by NWS Springfield, MO

Home | Current Version | Previous Version | Text Only | Print | Product List | Glossary On
Versions: 1 2 3 4 5 6 7 8 9 10 11 12 13 14 15 16 17 18 19 20 21 22 23 24 25 26
000
FTUS43 KSGF 311100
TAFSGF
TAF
KSGF 311120Z 3112/0112 16009KT P6SM SCT007
      TEMPO 3112/3114 BKN007
     FM311400 19010KT P6SM SKC
     FM010100 16012KT P6SM SKC
     FM010700 16013KT P6SM SCT100 BKN200 WS020/19040KT=

USA.gov is the U.S. government's official web portal to all federal, state and local government web resources and services.